createdAt,value
2019-03-18T00:02:23.237Z,7.00
2019-03-18T00:04:52.749Z,6.30
2019-03-18T00:07:22.756Z,5.07
2019-03-18T00:09:52.267Z,8.57
2019-03-18T00:12:21.781Z,7.43
2019-03-18T00:15:00.749Z,3.73
2019-03-18T00:17:22.125Z,6.90
2019-03-18T00:19:51.641Z,5.50
2019-03-18T00:22:21.621Z,5.87
2019-03-18T00:24:50.489Z,6.00
2019-03-18T00:27:20.015Z,5.00
2019-03-18T00:29:49.938Z,6.77
2019-03-18T00:32:18.796Z,5.57
2019-03-18T00:34:47.667Z,13.10
2019-03-18T00:37:18.735Z,7.40
2019-03-18T00:39:50.457Z,11.03
2019-03-18T00:42:19.973Z,8.60
2019-03-18T00:44:49.291Z,8.73
2019-03-18T00:47:18.837Z,7.10
2019-03-18T00:49:47.730Z,6.80
2019-03-18T00:52:17.760Z,7.20
2019-03-18T00:54:49.548Z,6.07
2019-03-18T00:57:18.412Z,8.17
2019-03-18T00:59:48.604Z,5.13
2019-03-18T01:02:19.354Z,7.40
2019-03-18T01:04:48.889Z,5.70
2019-03-18T01:07:18.120Z,8.07
2019-03-18T01:09:47.761Z,6.50
2019-03-18T01:12:16.635Z,4.60
2019-03-18T01:14:46.068Z,4.93
2019-03-18T01:17:14.886Z,5.03
2019-03-18T01:19:44.396Z,8.93
2019-03-18T01:22:14.229Z,5.43
2019-03-18T01:24:43.087Z,8.00
2019-03-18T01:27:12.615Z,6.77
2019-03-18T01:29:42.569Z,6.90
2019-03-18T01:32:12.095Z,7.00
2019-03-18T01:34:40.959Z,7.13
2019-03-18T01:37:10.848Z,5.23
2019-03-18T01:39:40.378Z,5.03
2019-03-18T01:42:09.924Z,8.97
2019-03-18T01:44:39.264Z,6.10
2019-03-18T01:47:08.791Z,8.03
2019-03-18T01:49:38.313Z,7.07
2019-03-18T01:52:08.300Z,4.70
2019-03-18T01:54:37.812Z,6.90
2019-03-18T01:57:07.340Z,4.60
2019-03-18T01:59:36.909Z,3.30
2019-03-18T02:02:05.776Z,6.37
2019-03-18T02:04:36.364Z,5.10
2019-03-18T02:07:05.284Z,3.80
2019-03-18T02:09:34.934Z,6.17
2019-03-18T02:12:04.448Z,4.43
2019-03-18T02:14:33.348Z,5.97
2019-03-18T02:17:03.320Z,7.50
2019-03-18T02:19:32.861Z,3.77
2019-03-18T02:22:02.409Z,5.03
2019-03-18T02:24:31.778Z,3.07
2019-03-18T02:27:01.283Z,7.43
2019-03-18T02:29:30.859Z,4.97
2019-03-18T02:32:00.764Z,3.63
2019-03-18T02:34:30.323Z,5.30
2019-03-18T02:36:59.201Z,5.03
2019-03-18T02:39:29.103Z,2.70
2019-03-18T02:41:58.634Z,4.97
2019-03-18T02:44:28.170Z,4.13
2019-03-18T02:46:57.469Z,5.53
2019-03-18T02:49:26.981Z,4.47
2019-03-18T02:51:56.533Z,5.03
2019-03-18T02:54:26.496Z,7.07
2019-03-18T02:56:55.361Z,5.67
2019-03-18T02:59:24.896Z,4.73
2019-03-18T03:01:54.806Z,6.07
2019-03-18T03:04:24.316Z,5.80
2019-03-18T03:06:53.235Z,3.70
2019-03-18T03:09:23.118Z,4.97
2019-03-18T03:11:52.633Z,6.50
2019-03-18T03:14:22.319Z,5.23
2019-03-18T03:16:52.266Z,5.13
2019-03-18T03:19:21.133Z,6.47
2019-03-18T03:21:50.679Z,5.33
2019-03-18T03:24:20.569Z,4.83
2019-03-18T03:26:50.093Z,5.37
2019-03-18T03:29:19.465Z,6.70
2019-03-18T03:31:49.785Z,5.97
2019-03-18T03:34:18.659Z,7.50
2019-03-18T03:36:48.826Z,4.90
2019-03-18T03:39:18.808Z,4.37
2019-03-18T03:41:47.713Z,7.23
2019-03-18T03:44:16.612Z,5.23
2019-03-18T03:46:45.797Z,8.77
2019-03-18T03:49:14.682Z,6.47
2019-03-18T03:51:44.233Z,5.43
2019-03-18T03:54:14.209Z,6.40
2019-03-18T03:56:43.737Z,5.40
2019-03-18T03:59:12.721Z,4.73
2019-03-18T04:01:42.721Z,5.37
2019-03-18T04:04:12.365Z,4.97
2019-03-18T04:06:41.916Z,3.77
2019-03-18T04:09:11.886Z,5.60
2019-03-18T04:11:40.755Z,4.73
2019-03-18T04:14:10.297Z,3.90
2019-03-18T04:16:43.898Z,6.00
2019-03-18T04:19:10.746Z,5.87
2019-03-18T04:21:39.710Z,6.63
2019-03-18T04:24:09.495Z,5.50
2019-03-18T04:26:38.361Z,3.90
2019-03-18T04:29:07.898Z,5.83
2019-03-18T04:31:37.800Z,3.73
2019-03-18T04:34:06.667Z,6.90
2019-03-18T04:36:36.217Z,8.97
2019-03-18T04:39:06.673Z,4.27
2019-03-18T04:41:35.528Z,4.17
2019-03-18T04:44:04.428Z,6.03
2019-03-18T04:46:33.945Z,3.90
2019-03-18T04:49:03.479Z,7.67
2019-03-18T04:51:33.452Z,6.50
2019-03-18T04:54:02.332Z,4.20
2019-03-18T04:56:31.201Z,7.00
2019-03-18T04:59:00.907Z,5.40
2019-03-18T05:01:30.418Z,5.97
2019-03-18T05:03:59.611Z,7.30
2019-03-18T05:06:29.180Z,7.80
2019-03-18T05:08:58.724Z,8.03
2019-03-18T05:11:27.963Z,6.57
2019-03-18T05:13:56.965Z,8.70
2019-03-18T05:16:26.476Z,6.67
2019-03-18T05:18:55.625Z,8.97
2019-03-18T05:21:24.520Z,5.80
2019-03-18T05:23:54.055Z,8.50
2019-03-18T05:26:24.036Z,7.77
2019-03-18T05:28:53.621Z,8.43
2019-03-18T05:31:22.504Z,7.23
2019-03-18T05:33:52.352Z,8.97
2019-03-18T05:36:21.892Z,13.13
2019-03-18T05:38:50.764Z,9.77
2019-03-18T05:41:19.936Z,10.63
2019-03-18T05:43:49.519Z,9.47
2019-03-18T05:46:18.397Z,9.07
2019-03-18T05:48:47.852Z,11.70
2019-03-18T05:51:17.409Z,11.20
2019-03-18T05:53:46.580Z,9.40
2019-03-18T05:56:16.464Z,10.33
2019-03-18T05:58:46.180Z,9.17
2019-03-18T06:01:15.028Z,9.53
2019-03-18T06:03:47.178Z,8.33
2019-03-18T06:06:16.065Z,14.77
2019-03-18T06:08:45.632Z,13.63
2019-03-18T06:11:15.681Z,13.63
2019-03-18T06:13:45.128Z,11.53
2019-03-18T06:16:14.717Z,18.70
2019-03-18T06:18:44.044Z,17.13
2019-03-18T06:21:15.872Z,11.17
2019-03-18T06:23:48.826Z,12.53
2019-03-18T06:26:19.012Z,13.07
2019-03-18T06:28:47.997Z,11.77
2019-03-18T06:31:16.864Z,10.83
2019-03-18T06:33:45.820Z,14.60
2019-03-18T06:36:15.366Z,12.30
2019-03-18T06:38:44.993Z,12.93
2019-03-18T06:41:14.659Z,12.33
2019-03-18T06:43:50.502Z,18.03
2019-03-18T06:46:20.164Z,17.20
2019-03-18T06:48:49.907Z,11.60
2019-03-18T06:51:19.445Z,11.03
2019-03-18T06:53:48.741Z,10.83
2019-03-18T06:56:18.370Z,18.30
2019-03-18T06:58:48.134Z,10.13
2019-03-18T07:01:17.966Z,12.00
2019-03-18T07:03:47.545Z,13.83
2019-03-18T07:06:16.416Z,17.13
2019-03-18T07:08:46.366Z,14.60
2019-03-18T07:11:15.993Z,10.37
2019-03-18T07:13:46.346Z,17.10
2019-03-18T07:16:15.257Z,17.27
2019-03-18T07:18:44.785Z,12.07
2019-03-18T07:21:14.863Z,15.17
2019-03-18T07:23:46.440Z,21.70
2019-03-18T07:26:16.265Z,11.90
2019-03-18T07:28:47.231Z,13.83
2019-03-18T07:31:16.088Z,13.03
2019-03-18T07:33:44.968Z,11.03
2019-03-18T07:36:14.808Z,14.07
2019-03-18T07:38:44.357Z,12.27
2019-03-18T07:41:13.236Z,12.33
2019-03-18T07:43:42.382Z,11.37
2019-03-18T07:46:11.945Z,10.77
2019-03-18T07:48:41.532Z,13.50
2019-03-18T07:51:10.891Z,15.80
2019-03-18T07:53:40.771Z,11.80
2019-03-18T07:56:10.305Z,10.00
2019-03-18T07:58:40.171Z,11.17
2019-03-18T08:01:09.055Z,17.77
2019-03-18T08:03:37.945Z,13.00
2019-03-18T08:06:07.836Z,11.00
2019-03-18T08:08:36.810Z,10.93
2019-03-18T08:11:06.521Z,12.90
2019-03-18T08:13:36.374Z,11.73
2019-03-18T08:16:05.944Z,9.83
2019-03-18T08:18:43.204Z,11.83
2019-03-18T08:21:07.413Z,8.27
2019-03-18T08:23:36.315Z,6.70
2019-03-18T08:26:05.908Z,12.90
2019-03-18T08:28:36.654Z,11.00
2019-03-18T08:31:06.237Z,10.43
2019-03-18T08:33:35.802Z,9.00
2019-03-18T08:36:05.763Z,9.40
2019-03-18T08:38:34.669Z,8.87
2019-03-18T08:41:04.214Z,8.87
2019-03-18T08:43:34.117Z,9.20
2019-03-18T08:46:03.027Z,6.03
2019-03-18T08:48:32.675Z,9.93
2019-03-18T08:51:02.597Z,10.30
2019-03-18T08:53:32.218Z,10.80
2019-03-18T08:56:01.112Z,14.70
2019-03-18T08:58:30.373Z,10.67
2019-03-18T09:00:59.971Z,10.90
2019-03-18T09:03:29.516Z,9.50
2019-03-18T09:05:59.430Z,11.20
2019-03-18T09:08:28.986Z,7.80
2019-03-18T09:10:58.516Z,9.10
2019-03-18T09:13:28.352Z,13.17
2019-03-18T09:15:58.652Z,9.87
2019-03-18T09:18:27.489Z,8.43
2019-03-18T09:20:57.485Z,7.67
2019-03-18T09:23:27.069Z,11.37
2019-03-18T09:25:56.617Z,14.37
2019-03-18T09:28:25.889Z,13.43
2019-03-18T09:30:54.801Z,10.43
2019-03-18T09:33:24.334Z,13.47
2019-03-18T09:35:54.308Z,10.67
2019-03-18T09:38:23.221Z,10.20
2019-03-18T09:40:52.793Z,10.33
2019-03-18T09:43:22.800Z,8.20
2019-03-18T09:45:54.492Z,9.10
2019-03-18T09:48:23.534Z,7.77
2019-03-18T09:50:52.893Z,4.87
2019-03-18T09:53:21.781Z,4.33
2019-03-18T09:55:51.316Z,3.03
2019-03-18T09:58:21.269Z,4.13
2019-03-18T10:00:50.925Z,4.73
2019-03-18T15:16:15.510Z,9.57
2019-03-18T15:18:44.518Z,8.10
2019-03-18T15:21:14.196Z,24.57
2019-03-18T15:23:44.050Z,10.70
2019-03-18T15:26:14.661Z,13.77
2019-03-18T15:28:44.169Z,7.67
2019-03-18T15:31:13.069Z,8.60
2019-03-18T15:33:42.598Z,12.60
2019-03-18T15:36:12.655Z,9.10
2019-03-18T15:38:45.326Z,11.53
2019-03-18T15:41:14.877Z,10.10
2019-03-18T15:43:44.724Z,7.50
2019-03-18T15:46:13.630Z,5.33
2019-03-18T15:48:43.173Z,8.50
2019-03-18T15:51:13.021Z,5.60
2019-03-18T15:53:42.579Z,5.97
2019-03-18T15:56:12.110Z,5.77
2019-03-18T15:58:41.909Z,3.87
2019-03-18T16:01:11.469Z,7.63
2019-03-18T16:03:41.005Z,8.50
2019-03-18T16:06:10.336Z,7.17
2019-03-18T16:08:39.901Z,10.47
2019-03-18T16:11:08.791Z,7.63
2019-03-18T16:13:37.690Z,4.43
2019-03-18T16:16:07.251Z,9.27
2019-03-18T16:18:36.782Z,10.80
2019-03-18T16:21:06.829Z,4.33
2019-03-18T16:23:35.729Z,2.67
2019-03-18T16:26:05.278Z,10.57
2019-03-18T16:28:34.479Z,5.00
2019-03-18T16:31:04.043Z,5.00
2019-03-18T16:33:33.015Z,3.43
2019-03-18T16:36:05.847Z,7.73
2019-03-18T16:38:34.677Z,8.53
2019-03-18T16:41:03.591Z,5.00
2019-03-18T16:43:33.117Z,7.00
2019-03-18T16:46:04.934Z,8.90
2019-03-18T16:48:34.750Z,5.67
2019-03-18T16:51:07.350Z,5.57
2019-03-18T16:53:39.141Z,7.27
2019-03-18T16:56:09.977Z,7.60
2019-03-18T16:58:39.744Z,5.07
2019-03-18T17:01:13.690Z,8.57
2019-03-18T17:03:46.001Z,4.67
2019-03-18T17:06:17.956Z,9.30
2019-03-18T17:08:47.919Z,12.03
2019-03-18T17:11:22.735Z,6.43
2019-03-18T17:13:52.763Z,8.87
2019-03-18T17:16:24.771Z,5.73
2019-03-18T17:19:05.802Z,5.77
2019-03-18T17:21:35.513Z,4.20
2019-03-18T17:24:08.123Z,7.03
2019-03-18T17:26:37.681Z,7.27
2019-03-18T17:29:07.563Z,9.03
2019-03-18T17:31:38.674Z,5.47
2019-03-18T17:34:08.247Z,6.70
2019-03-18T17:36:38.291Z,5.63
2019-03-18T17:39:08.228Z,7.03
2019-03-18T17:41:40.053Z,7.37
2019-03-18T17:44:09.225Z,6.03
2019-03-18T17:46:41.155Z,6.37
2019-03-18T17:49:11.737Z,7.83
2019-03-18T17:51:42.955Z,3.27
2019-03-18T17:54:17.863Z,6.07
2019-03-18T17:56:51.101Z,8.33
2019-03-18T17:59:22.569Z,9.47
2019-03-18T18:01:52.098Z,11.07
2019-03-18T18:04:21.890Z,7.63
2019-03-18T18:06:52.252Z,8.77
2019-03-18T18:09:21.116Z,7.23
2019-03-18T18:11:52.210Z,9.30
2019-03-18T18:14:21.596Z,4.63
2019-03-18T18:16:51.723Z,4.90
2019-03-18T18:19:20.641Z,8.37
2019-03-18T18:21:54.061Z,8.37
2019-03-18T18:24:23.270Z,6.83
2019-03-18T18:26:54.126Z,8.73
2019-03-18T18:29:23.257Z,8.60
2019-03-18T18:31:53.023Z,10.07
2019-03-18T18:34:23.395Z,11.10
2019-03-18T18:36:53.363Z,6.97
2019-03-18T18:39:22.260Z,4.17
2019-03-18T18:41:51.128Z,6.57
2019-03-18T18:44:21.161Z,8.23
2019-03-18T18:46:50.065Z,6.07
2019-03-18T18:49:19.609Z,9.40
2019-03-18T18:51:49.594Z,8.10
2019-03-18T18:54:19.125Z,8.00
2019-03-18T18:56:48.677Z,9.60
2019-03-18T18:59:17.869Z,4.43
2019-03-18T19:01:47.649Z,7.00
2019-03-18T19:04:17.463Z,11.23
2019-03-18T19:06:47.589Z,13.03
2019-03-18T19:09:16.480Z,13.47
2019-03-18T19:11:46.129Z,13.87
2019-03-18T19:14:15.958Z,8.30
2019-03-18T19:16:45.521Z,12.47
2019-03-18T19:19:16.839Z,19.63
2019-03-18T19:21:47.288Z,14.93
2019-03-18T19:24:16.932Z,13.13
2019-03-18T19:26:45.823Z,16.53
2019-03-18T19:29:15.131Z,31.93
2019-03-18T19:31:45.037Z,38.33
2019-03-18T19:34:14.816Z,27.53
2019-03-18T19:36:45.115Z,21.63
2019-03-18T19:39:15.612Z,28.97
2019-03-18T19:41:45.362Z,32.80
2019-03-18T19:44:15.321Z,25.37
2019-03-18T19:46:44.985Z,32.60
2019-03-18T19:49:16.989Z,39.50
2019-03-18T19:51:46.400Z,35.90
2019-03-18T19:54:15.293Z,20.07
2019-03-18T19:56:45.110Z,21.13
2019-03-18T19:59:15.407Z,16.53
2019-03-18T20:01:45.078Z,20.27
2019-03-18T20:04:14.714Z,18.07
2019-03-18T20:06:43.921Z,11.87
2019-03-18T20:09:13.727Z,17.63
2019-03-18T20:11:44.321Z,13.07
2019-03-18T20:14:14.164Z,17.77
2019-03-18T20:16:43.125Z,14.33
2019-03-18T20:19:12.692Z,12.93
2019-03-18T20:21:42.846Z,14.53
2019-03-18T20:24:11.807Z,14.70
2019-03-18T20:26:43.694Z,14.63
2019-03-18T20:29:13.277Z,15.10
2019-03-18T20:31:42.959Z,11.57
2019-03-18T20:34:11.834Z,15.00
2019-03-18T20:36:41.117Z,11.33
2019-03-18T20:39:10.805Z,12.47
2019-03-18T20:41:39.683Z,10.50
2019-03-18T20:44:09.258Z,5.80
2019-03-18T20:46:38.790Z,17.60
2019-03-18T20:49:07.672Z,7.70
2019-03-18T20:51:37.054Z,9.93
2019-03-18T20:54:12.072Z,12.17
2019-03-18T20:56:37.755Z,11.83
2019-03-18T20:59:07.580Z,18.80
2019-03-18T21:01:37.128Z,9.00
2019-03-18T21:04:06.001Z,11.13
2019-03-18T21:06:35.575Z,11.20
2019-03-18T21:09:06.928Z,12.63
2019-03-18T21:11:36.459Z,12.93
2019-03-18T21:14:06.134Z,14.30
2019-03-18T21:16:37.929Z,41.97
2019-03-18T21:19:09.255Z,17.07
2019-03-18T21:21:38.812Z,16.03
2019-03-18T21:24:07.694Z,13.43
2019-03-18T21:26:37.521Z,15.13
2019-03-18T21:29:07.069Z,9.07
2019-03-18T21:31:36.601Z,9.47
2019-03-18T21:34:05.481Z,9.13
2019-03-18T21:36:38.102Z,10.23
2019-03-18T21:39:09.438Z,11.83
2019-03-18T21:41:38.411Z,9.00
2019-03-18T21:44:07.956Z,11.80
2019-03-18T21:46:37.903Z,8.37
2019-03-18T21:49:07.460Z,10.03
2019-03-18T21:51:36.338Z,11.67
2019-03-18T21:54:05.974Z,13.67
2019-03-18T21:56:35.555Z,10.03
2019-03-18T21:59:05.098Z,11.20
2019-03-18T22:01:33.977Z,7.73
2019-03-18T22:04:03.531Z,11.73
2019-03-18T22:06:33.070Z,10.67
2019-03-18T22:09:03.045Z,11.00
2019-03-18T22:11:31.945Z,8.77
2019-03-18T22:14:01.476Z,12.13
2019-03-18T22:16:31.352Z,14.27
2019-03-18T22:19:00.930Z,6.47
2019-03-18T22:21:30.454Z,8.77
2019-03-18T22:23:59.764Z,11.73
2019-03-18T22:26:29.332Z,15.40
2019-03-18T22:29:00.374Z,78.97
2019-03-18T22:31:30.224Z,103.13
2019-03-18T22:33:59.131Z,50.93
2019-03-18T22:36:28.001Z,46.37
2019-03-18T22:38:58.281Z,51.57
2019-03-18T22:41:30.157Z,23.27
2019-03-18T22:43:59.037Z,30.10
2019-03-18T22:46:28.559Z,27.63
2019-03-18T22:48:57.529Z,41.00
2019-03-18T22:51:27.482Z,30.10
2019-03-18T22:53:57.017Z,45.53
2019-03-18T22:56:26.577Z,65.57
2019-03-18T22:58:56.413Z,55.57
2019-03-18T23:01:26.581Z,29.80
2019-03-18T23:03:56.154Z,12.03
2019-03-18T23:06:26.948Z,9.53
2019-03-18T23:08:56.471Z,9.30
2019-03-18T23:11:26.025Z,12.97
2019-03-18T23:13:55.230Z,12.03
2019-03-18T23:16:24.762Z,16.33
2019-03-18T23:18:54.329Z,10.23
2019-03-18T23:21:23.860Z,10.17
2019-03-18T23:23:53.390Z,11.07
2019-03-18T23:26:22.618Z,9.83
2019-03-18T23:28:52.166Z,12.10
2019-03-18T23:31:21.704Z,9.77
2019-03-18T23:33:51.640Z,12.70
2019-03-18T23:36:20.517Z,11.43
2019-03-18T23:38:50.038Z,7.73
2019-03-18T23:41:19.978Z,9.73
2019-03-18T23:43:51.168Z,6.43
2019-03-18T23:46:20.694Z,7.23
2019-03-18T23:48:50.769Z,7.37
2019-03-18T23:51:19.633Z,9.47
2019-03-18T23:53:49.163Z,7.80
2019-03-18T23:56:19.033Z,9.57
2019-03-18T23:58:47.909Z,9.70
